Time;durP1;ratioP1;P1;durP2;ratioP2;P2;SDS_P1;SDS_P2;PMS_P1;PMS_P2;Temp;Humidity;BMP_temperature;BMP_pressure;BME280_temperature;BME280_humidity;BME280_pressure;Samples;Min_cycle;Max_cycle;Signal;HPM_P1;HPM_P2
2023/01/17 00:01:55;;;;;;;6.70;2.45;;;3.50;99.90;;;;;;5105797;28;20051;-67
2023/01/17 00:09:55;;;;;;;;;;;3.50;99.90;;;;;;5107788;28;20059;-66
2023/01/17 00:12:27;;;;;;;3.75;2.53;;;3.50;99.90;;;;;;5105037;28;19920;-66
2023/01/17 00:14:55;;;;;;;4.43;2.28;;;3.50;99.90;;;;;;5110640;28;20084;-66
2023/01/17 00:17:22;;;;;;;8.18;2.50;;;3.60;99.90;;;;;;5110181;28;20054;-66
2023/01/17 01:35:21;;;;;;;3.00;0.90;;;3.20;99.90;;;;;;5105510;28;20134;-67
2023/01/17 01:37:46;;;;;;;5.32;1.33;;;3.20;99.90;;;;;;5096232;28;20697;-68
2023/01/17 01:40:13;;;;;;;2.28;0.65;;;3.10;99.90;;;;;;5090293;28;20059;-68
2023/01/17 01:42:56;;;;;;;10.20;1.27;;;3.10;99.90;;;;;;5108645;28;20044;-67
2023/01/17 01:45:28;;;;;;;4.18;1.00;;;3.00;99.90;;;;;;5089765;28;20052;-67
2023/01/17 01:48:18;;;;;;;3.60;1.17;;;3.00;99.90;;;;;;5099412;28;20075;-69
2023/01/17 01:50:43;;;;;;;6.40;1.52;;;2.90;99.90;;;;;;5105539;28;20066;-69
2023/01/17 01:53:10;;;;;;;3.17;1.50;;;2.90;99.90;;;;;;5106240;28;20492;-69
2023/01/17 01:55:40;;;;;;;8.13;2.08;;;2.90;99.90;;;;;;5107824;28;20446;-69
2023/01/17 01:58:16;;;;;;;8.43;2.03;;;2.90;99.90;;;;;;5105478;28;20052;-70
2023/01/17 02:00:42;;;;;;;3.80;1.17;;;2.90;99.90;;;;;;5083561;28;20130;-70
2023/01/17 02:03:13;;;;;;;5.38;1.33;;;2.90;99.90;;;;;;5102016;28;20062;-70
2023/01/17 02:05:42;;;;;;;2.92;1.00;;;2.90;99.90;;;;;;5102982;28;20040;-69
2023/01/17 02:08:11;;;;;;;3.17;1.52;;;2.90;99.90;;;;;;5105206;28;20044;-69
2023/01/17 02:10:40;;;;;;;4.00;1.67;;;2.90;99.90;;;;;;5105199;28;20499;-69
2023/01/17 02:13:06;;;;;;;2.47;1.30;;;2.80;99.90;;;;;;5106284;28;20062;-69
2023/01/17 02:15:54;;;;;;;4.93;1.17;;;2.90;99.90;;;;;;5102028;28;20066;-69
2023/01/17 02:18:34;;;;;;;5.57;1.23;;;2.90;99.90;;;;;;5101187;28;20051;-69
2023/01/17 02:21:28;;;;;;;14.52;2.00;;;2.80;99.90;;;;;;5099251;28;20484;-69
2023/01/17 02:24:10;;;;;;;11.48;1.35;;;2.80;99.90;;;;;;5094271;28;20067;-69
2023/01/17 02:26:38;;;;;;;2.30;1.02;;;2.80;99.90;;;;;;5103260;28;20052;-69
2023/01/17 02:29:09;;;;;;;3.17;1.40;;;2.80;99.90;;;;;;5095192;28;20147;-70
2023/01/17 02:32:00;;;;;;;7.07;1.60;;;2.80;99.90;;;;;;5086450;28;20056;-69
2023/01/17 02:34:52;;;;;;;2.08;1.10;;;2.80;99.90;;;;;;5087023;28;20070;-69
2023/01/17 02:37:39;;;;;;;7.25;1.35;;;2.70;99.90;;;;;;5100405;28;20396;-69
2023/01/17 02:40:13;;;;;;;7.72;1.58;;;2.70;99.90;;;;;;5099871;28;20564;-69
2023/01/17 02:42:48;;;;;;;3.17;1.25;;;2.60;99.90;;;;;;5094005;28;20047;-69
2023/01/17 02:45:16;;;;;;;7.97;1.13;;;2.60;99.90;;;;;;5093545;28;20051;-69
2023/01/17 02:47:45;;;;;;;8.43;2.40;;;2.60;99.90;;;;;;5087429;28;20055;-69
2023/01/17 02:50:24;;;;;;;3.83;1.60;;;2.60;99.90;;;;;;5086072;28;20052;-69
2023/01/17 02:53:21;;;;;;;4.55;1.40;;;2.50;99.90;;;;;;5089600;28;20040;-69
2023/01/17 02:56:33;;;;;;;1.35;0.88;;;2.50;99.90;;;;;;5092322;28;20528;-69
2023/01/17 02:59:04;;;;;;;5.47;2.00;;;2.50;99.90;;;;;;5078785;28;20612;-69
2023/01/17 03:01:42;;;;;;;0.77;0.77;;;2.50;99.90;;;;;;5097769;28;20056;-69
2023/01/17 03:04:25;;;;;;;10.45;2.33;;;2.50;99.90;;;;;;5088262;28;20135;-69
2023/01/17 03:06:59;;;;;;;4.00;1.50;;;2.50;99.90;;;;;;5107198;28;20047;-69
2023/01/17 03:09:25;;;;;;;2.83;1.60;;;2.50;99.90;;;;;;5092727;28;20079;-68
2023/01/17 03:11:51;;;;;;;7.25;1.33;;;2.50;99.90;;;;;;5098751;28;20526;-69
2023/01/17 03:14:17;;;;;;;9.57;2.92;;;2.60;99.90;;;;;;5092293;28;20036;-69
2023/01/17 03:16:43;;;;;;;2.78;1.23;;;2.60;99.90;;;;;;5096303;28;20458;-68
2023/01/17 03:19:09;;;;;;;11.60;2.13;;;2.60;99.90;;;;;;5107028;28;20053;-69
2023/01/17 03:21:35;;;;;;;13.85;2.47;;;2.60;99.90;;;;;;5095833;28;20048;-69
2023/01/17 03:24:01;;;;;;;2.30;1.23;;;2.60;99.90;;;;;;5107251;28;20085;-69
2023/01/17 03:26:27;;;;;;;3.92;1.15;;;2.70;99.90;;;;;;5106842;28;20467;-69
2023/01/17 03:28:53;;;;;;;5.65;1.90;;;2.70;99.90;;;;;;5094488;28;20036;-69
2023/01/17 03:31:19;;;;;;;7.80;2.03;;;2.70;99.90;;;;;;5122663;28;20044;-68
2023/01/17 03:33:44;;;;;;;6.97;1.95;;;2.70;99.90;;;;;;5099532;28;20388;-69
2023/01/17 03:36:11;;;;;;;8.18;1.92;;;2.80;99.90;;;;;;5098747;28;20500;-69
2023/01/17 03:38:37;;;;;;;5.85;1.58;;;2.70;99.90;;;;;;5104185;28;20473;-69
2023/01/17 03:41:03;;;;;;;9.38;2.33;;;2.70;99.90;;;;;;5096517;28;20086;-69
2023/01/17 03:43:29;;;;;;;14.10;1.92;;;2.70;99.90;;;;;;5088018;28;20040;-69
2023/01/17 03:46:04;;;;;;;7.93;1.65;;;2.70;99.90;;;;;;5089284;28;20044;-69
2023/01/17 03:48:29;;;;;;;5.28;1.27;;;2.70;99.90;;;;;;5089319;28;20101;-69
2023/01/17 03:50:55;;;;;;;8.95;1.73;;;2.70;99.90;;;;;;5093521;28;20039;-69
2023/01/17 03:53:21;;;;;;;7.47;1.95;;;2.70;99.90;;;;;;5106467;28;20047;-69
2023/01/17 03:55:47;;;;;;;5.60;1.67;;;2.70;99.90;;;;;;5095581;28;20122;-69
2023/01/17 03:58:13;;;;;;;5.88;1.23;;;2.70;99.90;;;;;;5092500;28;20040;-69
2023/01/17 04:00:38;;;;;;;4.07;1.83;;;2.70;99.90;;;;;;5102687;28;20040;-68
2023/01/17 04:03:04;;;;;;;9.13;1.73;;;2.70;99.90;;;;;;5099578;28;20586;-68
2023/01/17 04:05:30;;;;;;;5.95;2.13;;;2.70;99.90;;;;;;5093790;28;20063;-69
2023/01/17 04:07:55;;;;;;;5.07;1.60;;;2.60;99.90;;;;;;5093759;28;20054;-68
2023/01/17 04:10:21;;;;;;;7.05;2.33;;;2.70;99.90;;;;;;5103292;28;20040;-72
2023/01/17 04:12:47;;;;;;;7.35;2.35;;;2.70;99.90;;;;;;5103738;28;20134;-69
2023/01/17 04:15:13;;;;;;;9.05;2.20;;;2.60;99.90;;;;;;5092944;28;20043;-68
2023/01/17 04:17:38;;;;;;;7.78;2.30;;;2.60;99.90;;;;;;5090010;28;20040;-68
2023/01/17 04:20:04;;;;;;;10.10;2.40;;;2.60;99.90;;;;;;5109929;28;20040;-68
2023/01/17 04:22:30;;;;;;;4.38;1.42;;;2.60;99.90;;;;;;5108896;28;20053;-68
2023/01/17 04:24:57;;;;;;;11.30;2.13;;;2.60;99.90;;;;;;5093809;28;20032;-68
2023/01/17 04:27:22;;;;;;;7.60;1.63;;;2.60;99.90;;;;;;5109714;28;20094;-68
2023/01/17 04:29:48;;;;;;;3.78;1.58;;;2.60;99.90;;;;;;5109814;28;20507;-69
2023/01/17 04:32:14;;;;;;;11.05;2.38;;;2.60;99.90;;;;;;5109337;28;20207;-68
2023/01/17 04:34:40;;;;;;;9.32;2.15;;;2.60;99.90;;;;;;5094426;28;20063;-68
2023/01/17 04:37:07;;;;;;;7.93;2.13;;;2.50;99.90;;;;;;5100757;28;20119;-68
2023/01/17 04:39:32;;;;;;;8.70;1.88;;;2.50;99.90;;;;;;5124552;27;20055;-68
2023/01/17 04:41:58;;;;;;;12.43;2.33;;;2.40;99.90;;;;;;5108569;28;20032;-68
2023/01/17 04:44:24;;;;;;;5.63;1.73;;;2.40;99.90;;;;;;5086746;28;20985;-68
2023/01/17 04:46:49;;;;;;;5.57;1.80;;;2.40;99.90;;;;;;5108177;28;20515;-68
2023/01/17 04:49:15;;;;;;;4.07;1.17;;;2.30;99.90;;;;;;5108692;28;20051;-68
2023/01/17 04:51:40;;;;;;;4.70;1.70;;;2.30;99.90;;;;;;5103661;28;20047;-69
2023/01/17 04:54:06;;;;;;;8.70;1.70;;;2.30;99.90;;;;;;5093004;28;20083;-69
2023/01/17 04:56:32;;;;;;;14.25;2.30;;;2.30;99.90;;;;;;5100781;28;20098;-68
2023/01/17 04:58:57;;;;;;;5.63;1.55;;;2.20;99.90;;;;;;5105914;28;20455;-68
2023/01/17 05:01:23;;;;;;;8.35;1.90;;;2.20;99.90;;;;;;5091826;28;20619;-68
2023/01/17 05:03:49;;;;;;;6.78;2.25;;;2.10;99.90;;;;;;5087508;28;20047;-68
2023/01/17 05:06:14;;;;;;;2.38;0.80;;;2.10;99.90;;;;;;5091454;28;20044;-68
2023/01/17 05:08:40;;;;;;;8.88;2.38;;;2.10;99.90;;;;;;5077110;28;20052;-68
2023/01/17 05:11:06;;;;;;;8.38;1.83;;;2.10;99.90;;;;;;5104025;28;20048;-68
2023/01/17 05:13:32;;;;;;;7.40;2.08;;;2.10;99.90;;;;;;5108877;28;20047;-68
2023/01/17 05:15:58;;;;;;;17.63;2.67;;;2.10;99.90;;;;;;5108924;28;20108;-68
2023/01/17 05:18:24;;;;;;;17.23;2.25;;;2.00;99.90;;;;;;5100811;28;20141;-67
2023/01/17 05:20:50;;;;;;;6.32;1.77;;;2.00;99.90;;;;;;5108158;28;20086;-67
2023/01/17 05:23:16;;;;;;;9.43;2.42;;;2.00;99.90;;;;;;5109288;28;20115;-68
2023/01/17 05:25:43;;;;;;;0.68;0.52;;;2.00;99.90;;;;;;5107133;28;20756;-67
2023/01/17 05:28:10;;;;;;;11.48;2.53;;;1.90;99.90;;;;;;5107221;28;20070;-67
2023/01/17 05:30:35;;;;;;;12.18;2.10;;;1.90;99.90;;;;;;5109512;28;20052;-67
2023/01/17 05:33:01;;;;;;;4.72;1.73;;;1.90;99.90;;;;;;5108638;28;20055;-67
2023/01/17 05:35:29;;;;;;;6.20;2.22;;;1.90;99.90;;;;;;5103979;28;20042;-68
2023/01/17 05:37:55;;;;;;;5.50;1.75;;;1.90;99.90;;;;;;5108450;28;20048;-68
2023/01/17 05:40:24;;;;;;;7.07;2.22;;;1.90;99.90;;;;;;5106735;28;20032;-67
2023/01/17 05:42:52;;;;;;;5.97;1.67;;;1.80;99.90;;;;;;5108242;28;20050;-67
2023/01/17 05:45:19;;;;;;;7.33;1.63;;;1.80;99.90;;;;;;5106960;28;20392;-68
2023/01/17 05:47:46;;;;;;;3.83;1.33;;;1.80;99.90;;;;;;5105947;28;20047;-67
2023/01/17 05:50:19;;;;;;;5.43;1.83;;;1.80;99.90;;;;;;5108732;28;20048;-68
2023/01/17 05:52:58;;;;;;;7.07;1.90;;;1.80;99.90;;;;;;5106368;28;20743;-68
2023/01/17 05:55:25;;;;;;;6.53;2.50;;;1.70;99.90;;;;;;5097933;28;20096;-67
2023/01/17 05:57:52;;;;;;;10.55;2.22;;;1.70;99.90;;;;;;5108440;27;20047;-68
2023/01/17 06:00:18;;;;;;;4.07;1.27;;;1.70;99.90;;;;;;5075366;28;20048;-68
2023/01/17 06:02:45;;;;;;;5.82;1.50;;;1.70;99.90;;;;;;5089712;28;20039;-68
2023/01/17 06:05:10;;;;;;;7.72;2.38;;;1.70;99.90;;;;;;5099713;28;20055;-68
2023/01/17 06:07:36;;;;;;;4.82;2.22;;;1.60;99.90;;;;;;5106698;28;20047;-68
2023/01/17 06:10:02;;;;;;;5.38;1.48;;;1.60;99.90;;;;;;5107891;28;20693;-67
2023/01/17 06:12:29;;;;;;;7.25;1.20;;;1.50;99.90;;;;;;5108261;28;20554;-67
2023/01/17 06:14:54;;;;;;;3.78;1.25;;;1.50;99.90;;;;;;5098825;27;20040;-67
2023/01/17 06:17:20;;;;;;;9.77;1.17;;;1.50;99.90;;;;;;5095974;28;20036;-68
2023/01/17 06:19:46;;;;;;;3.03;1.70;;;1.50;99.90;;;;;;5101777;28;20122;-68
2023/01/17 06:22:11;;;;;;;6.05;1.90;;;1.50;99.90;;;;;;5098712;28;20044;-67
2023/01/17 06:24:37;;;;;;;8.00;1.60;;;1.50;99.90;;;;;;5099969;28;20040;-67
2023/01/17 06:27:03;;;;;;;5.10;1.33;;;1.50;99.90;;;;;;5104811;28;20054;-67
2023/01/17 06:29:28;;;;;;;9.38;2.13;;;1.50;99.90;;;;;;5107227;28;20039;-67
2023/01/17 06:31:54;;;;;;;3.83;1.58;;;1.40;99.90;;;;;;5105622;28;20476;-67
2023/01/17 06:34:19;;;;;;;8.60;2.38;;;1.40;99.90;;;;;;5107603;28;20112;-68
2023/01/17 06:36:46;;;;;;;11.85;2.38;;;1.40;99.90;;;;;;5091663;28;20043;-68
2023/01/17 06:39:13;;;;;;;4.50;1.23;;;1.40;99.90;;;;;;5101849;28;20079;-68
2023/01/17 06:41:38;;;;;;;6.97;1.42;;;1.40;99.90;;;;;;5101390;28;20115;-68
2023/01/17 06:44:06;;;;;;;7.50;2.28;;;1.40;99.90;;;;;;5122252;27;20046;-68
2023/01/17 06:46:32;;;;;;;4.75;1.58;;;1.40;99.90;;;;;;5101579;28;20438;-68
2023/01/17 06:48:58;;;;;;;4.68;1.65;;;1.40;99.90;;;;;;5087280;28;20048;-68
2023/01/17 06:51:23;;;;;;;9.00;1.98;;;1.30;99.90;;;;;;5097692;28;20591;-67
2023/01/17 06:53:49;;;;;;;5.05;1.40;;;1.30;99.90;;;;;;5105960;28;20031;-67
2023/01/17 06:56:15;;;;;;;4.35;1.77;;;1.30;99.90;;;;;;5091089;28;20082;-67
2023/01/17 06:58:40;;;;;;;9.48;1.85;;;1.30;99.90;;;;;;5104964;28;20492;-68
2023/01/17 07:01:08;;;;;;;5.45;1.52;;;1.30;99.90;;;;;;5093352;28;20132;-67
2023/01/17 07:03:34;;;;;;;14.25;2.35;;;1.30;99.90;;;;;;5108038;28;20400;-67
2023/01/17 07:06:02;;;;;;;5.20;1.70;;;1.20;99.90;;;;;;5106401;28;20043;-67
2023/01/17 07:08:28;;;;;;;8.73;0.80;;;1.20;99.90;;;;;;5088813;28;20048;-68
2023/01/17 07:10:59;;;;;;;6.82;1.83;;;1.20;99.90;;;;;;5095789;28;20044;-67
2023/01/17 07:13:25;;;;;;;9.63;1.70;;;1.30;99.90;;;;;;5097190;28;20790;-67
2023/01/17 07:15:51;;;;;;;8.25;1.70;;;1.20;99.90;;;;;;5102284;28;20058;-68
2023/01/17 07:18:22;;;;;;;5.63;1.85;;;1.20;99.90;;;;;;5091824;28;20036;-68
2023/01/17 07:20:51;;;;;;;16.25;2.10;;;1.20;99.90;;;;;;5110116;28;20635;-68
2023/01/17 07:23:18;;;;;;;5.43;1.67;;;1.20;99.90;;;;;;5111455;28;20047;-67
2023/01/17 07:25:53;;;;;;;11.85;2.63;;;1.20;99.90;;;;;;5104635;28;20511;-67
2023/01/17 07:28:19;;;;;;;7.07;1.63;;;1.20;99.90;;;;;;5111238;28;20047;-68
2023/01/17 07:30:45;;;;;;;3.10;1.65;;;1.20;99.90;;;;;;5111071;28;20043;-67
2023/01/17 07:33:10;;;;;;;9.82;2.17;;;1.20;99.90;;;;;;5103152;28;20565;-67
2023/01/17 07:35:36;;;;;;;7.65;2.05;;;1.20;99.90;;;;;;5097571;28;20047;-67
2023/01/17 07:38:02;;;;;;;16.85;2.85;;;1.10;99.90;;;;;;5109909;28;20108;-68
2023/01/17 07:40:28;;;;;;;5.75;1.85;;;1.20;99.90;;;;;;5100314;28;20150;-67
2023/01/17 07:43:01;;;;;;;4.85;1.40;;;1.20;99.90;;;;;;5096370;28;20154;-67
2023/01/17 07:45:27;;;;;;;7.95;1.80;;;1.10;99.90;;;;;;5098850;28;20047;-67
2023/01/17 07:47:56;;;;;;;4.95;1.50;;;1.20;99.90;;;;;;5101063;28;20450;-67
2023/01/17 07:50:22;;;;;;;;;;;1.10;99.90;;;;;;5103482;28;20095;-67
2023/01/17 07:52:48;;;;;;;3.30;1.30;;;1.10;99.90;;;;;;5100337;27;19927;-68
2023/01/17 07:55:14;;;;;;;12.65;2.40;;;1.10;99.90;;;;;;5100963;28;20095;-67
2023/01/17 07:57:40;;;;;;;3.65;1.40;;;1.10;99.90;;;;;;5098619;28;20441;-67
2023/01/17 08:00:07;;;;;;;3.70;0.82;;;1.10;99.90;;;;;;5088848;28;20044;-68
2023/01/17 08:02:32;;;;;;;10.50;2.65;;;1.10;99.90;;;;;;5092136;28;20043;-68
2023/01/17 08:04:58;;;;;;;3.50;1.67;;;1.10;99.90;;;;;;5089496;28;20032;-68
2023/01/17 08:07:24;;;;;;;6.90;1.45;;;1.10;99.90;;;;;;5101645;28;20039;-68
2023/01/17 08:09:49;;;;;;;7.35;2.00;;;1.10;99.90;;;;;;5108718;28;20088;-68
2023/01/17 08:12:15;;;;;;;3.22;0.93;;;1.10;99.90;;;;;;5095328;28;20051;-68
2023/01/17 08:14:41;;;;;;;9.10;2.03;;;1.20;99.90;;;;;;5101849;28;20119;-68
2023/01/17 08:17:11;;;;;;;4.00;1.73;;;1.10;99.90;;;;;;5092708;28;20051;-68
2023/01/17 08:19:37;;;;;;;8.20;1.00;;;1.10;99.90;;;;;;5104806;28;20044;-68
2023/01/17 08:22:02;;;;;;;4.53;1.20;;;1.10;99.90;;;;;;5100272;28;20032;-68
2023/01/17 08:24:28;;;;;;;6.93;2.08;;;1.10;99.90;;;;;;5100475;28;20115;-68
2023/01/17 08:26:55;;;;;;;5.40;1.52;;;1.10;99.90;;;;;;5096875;28;20040;-68
2023/01/17 08:29:21;;;;;;;8.10;2.38;;;1.10;99.90;;;;;;5097546;28;20046;-68
2023/01/17 08:31:47;;;;;;;7.57;1.90;;;1.10;99.90;;;;;;5096298;28;20039;-69
2023/01/17 08:34:15;;;;;;;4.38;0.52;;;1.10;99.90;;;;;;5091692;28;20067;-69
2023/01/17 08:36:41;;;;;;;4.85;2.20;;;1.10;99.90;;;;;;5089918;28;20114;-69
2023/01/17 08:39:08;;;;;;;6.00;2.10;;;1.10;99.90;;;;;;5093242;28;20102;-69
2023/01/17 08:41:34;;;;;;;6.93;2.22;;;1.20;99.90;;;;;;5101561;28;20130;-68
2023/01/17 08:44:01;;;;;;;12.90;2.35;;;1.20;99.90;;;;;;5102302;28;20059;-69
2023/01/17 08:46:27;;;;;;;4.80;2.22;;;1.20;99.90;;;;;;5088490;28;20044;-69
2023/01/17 08:48:54;;;;;;;5.00;1.80;;;1.20;99.90;;;;;;5102986;28;20046;-69
2023/01/17 08:51:23;;;;;;;11.43;3.10;;;1.30;99.90;;;;;;5092121;28;20590;-68
2023/01/17 08:53:49;;;;;;;13.45;2.35;;;1.20;99.90;;;;;;5106008;28;20446;-68
2023/01/17 08:56:14;;;;;;;9.57;2.85;;;1.30;99.90;;;;;;5106955;28;20044;-69
2023/01/17 08:58:40;;;;;;;4.78;2.30;;;1.20;99.90;;;;;;5104003;28;20058;-69
2023/01/17 09:01:07;;;;;;;3.83;1.90;;;1.30;99.90;;;;;;5099606;28;20428;-69
2023/01/17 09:03:33;;;;;;;6.10;2.28;;;1.30;99.90;;;;;;5108678;28;20047;-68
2023/01/17 09:06:04;;;;;;;4.32;2.08;;;1.30;99.90;;;;;;5089335;28;20043;-68
2023/01/17 09:08:30;;;;;;;7.57;2.30;;;1.30;99.90;;;;;;5089620;28;20135;-70
2023/01/17 09:10:55;;;;;;;3.40;2.22;;;1.30;99.90;;;;;;5094454;28;20126;-69
2023/01/17 09:13:21;;;;;;;7.60;2.15;;;1.40;99.90;;;;;;5107316;28;20035;-68
2023/01/17 09:15:46;;;;;;;5.35;2.38;;;1.40;99.90;;;;;;5101868;28;20442;-68
2023/01/17 09:18:12;;;;;;;4.20;1.75;;;1.40;99.90;;;;;;5123764;27;20039;-69
2023/01/17 09:20:38;;;;;;;10.40;2.08;;;1.40;99.90;;;;;;5109706;28;20092;-69
2023/01/17 09:23:03;;;;;;;7.97;3.00;;;1.40;99.90;;;;;;5102592;28;20039;-69
2023/01/17 09:25:29;;;;;;;6.00;2.33;;;1.40;99.90;;;;;;5106955;28;20492;-68
2023/01/17 09:27:55;;;;;;;8.90;2.97;;;1.40;99.90;;;;;;5096925;28;20631;-68
2023/01/17 09:30:21;;;;;;;7.13;2.25;;;1.50;99.90;;;;;;5099556;28;20452;-68
2023/01/17 09:32:53;;;;;;;6.40;2.47;;;1.50;99.90;;;;;;5104496;28;20047;-68
2023/01/17 09:35:19;;;;;;;4.97;2.35;;;1.50;99.90;;;;;;5105622;28;20058;-69
2023/01/17 09:37:49;;;;;;;4.18;0.80;;;1.60;99.90;;;;;;5109400;28;20047;-68
2023/01/17 09:40:23;;;;;;;8.30;1.88;;;1.60;99.90;;;;;;5100104;28;20048;-69
2023/01/17 09:42:52;;;;;;;1.35;0.90;;;1.60;99.90;;;;;;5090669;28;20097;-68
2023/01/17 09:45:19;;;;;;;2.70;2.03;;;1.60;99.90;;;;;;5101144;28;20040;-69
2023/01/17 09:47:51;;;;;;;4.60;2.60;;;1.60;99.90;;;;;;5090745;28;20048;-68
2023/01/17 09:50:25;;;;;;;6.63;3.58;;;1.70;99.90;;;;;;5092514;28;20051;-69
2023/01/17 09:53:02;;;;;;;8.95;2.95;;;1.80;99.90;;;;;;5089190;28;20040;-69
2023/01/17 09:55:36;;;;;;;11.80;3.03;;;1.80;99.90;;;;;;5088143;28;20558;-69
2023/01/17 09:58:11;;;;;;;12.55;3.25;;;1.90;99.90;;;;;;5100387;28;20051;-71
2023/01/17 10:00:58;;;;;;;9.85;8.98;;;1.90;99.90;;;;;;5095261;28;20048;-70
2023/01/17 10:03:38;;;;;;;5.57;3.90;;;2.10;99.90;;;;;;5091969;28;20145;-70
2023/01/17 10:06:17;;;;;;;6.88;3.47;;;2.20;99.90;;;;;;5075316;28;20123;-70
2023/01/17 10:09:02;;;;;;;6.15;3.17;;;2.30;99.90;;;;;;5096600;28;20071;-70
2023/01/17 10:11:58;;;;;;;9.98;3.85;;;2.30;99.90;;;;;;5091473;28;20139;-70
2023/01/17 10:14:39;;;;;;;8.70;4.47;;;2.50;99.90;;;;;;5086897;28;20048;-70
2023/01/17 10:17:12;;;;;;;11.40;3.40;;;2.60;99.90;;;;;;5087318;28;20050;-70
2023/01/17 10:19:52;;;;;;;15.75;4.15;;;2.60;99.90;;;;;;5105168;28;20062;-70
2023/01/17 10:22:45;;;;;;;9.80;4.18;;;2.70;99.90;;;;;;5103831;28;20047;-70
2023/01/17 10:25:11;;;;;;;10.02;4.15;;;2.80;99.90;;;;;;5065449;28;20052;-70
2023/01/17 10:28:00;;;;;;;14.43;4.22;;;2.90;99.90;;;;;;5107562;28;20134;-70
2023/01/17 10:30:47;;;;;;;10.38;3.38;;;3.00;99.90;;;;;;5109875;28;20060;-70
2023/01/17 10:33:23;;;;;;;14.70;3.90;;;3.20;99.90;;;;;;5104986;28;20549;-70
2023/01/17 10:35:58;;;;;;;18.13;4.15;;;3.20;99.90;;;;;;5097290;28;20201;-70
2023/01/17 10:38:34;;;;;;;6.32;2.83;;;3.30;99.90;;;;;;5093520;28;20505;-70
2023/01/17 10:41:35;;;;;;;8.82;3.47;;;3.30;99.90;;;;;;5098562;28;20051;-70
2023/01/17 10:44:37;;;;;;;7.97;3.10;;;3.40;99.90;;;;;;5094608;28;20081;-70
2023/01/17 10:47:18;;;;;;;6.38;3.17;;;3.50;99.90;;;;;;5090277;28;20052;-70
2023/01/17 10:49:51;;;;;;;10.60;2.92;;;3.60;99.90;;;;;;5100166;28;20096;-70
2023/01/17 10:52:29;;;;;;;8.55;3.28;;;3.60;99.90;;;;;;5098702;28;20083;-70
2023/01/17 10:55:23;;;;;;;7.00;3.50;;;3.70;99.90;;;;;;5122916;27;20051;-68
2023/01/17 10:57:50;;;;;;;5.82;3.00;;;3.70;99.90;;;;;;5108108;28;20504;-68
2023/01/17 11:00:50;;;;;;;9.32;3.53;;;3.80;99.90;;;;;;5092585;28;20719;-68
2023/01/17 11:03:20;;;;;;;5.43;3.20;;;3.80;99.90;;;;;;5108170;28;20057;-68
2023/01/17 11:06:26;;;;;;;9.68;2.85;;;3.90;99.90;;;;;;5105628;28;20048;-68
2023/01/17 11:08:55;;;;;;;10.40;2.75;;;3.90;99.90;;;;;;5103807;28;20043;-68
2023/01/17 11:11:24;;;;;;;6.97;2.60;;;4.00;99.90;;;;;;5097490;28;20047;-68
2023/01/17 11:13:53;;;;;;;7.20;3.00;;;4.00;99.90;;;;;;5106286;28;20047;-68
2023/01/17 11:16:24;;;;;;;5.75;2.70;;;4.10;99.90;;;;;;5104131;28;20055;-68
2023/01/17 11:19:19;;;;;;;8.25;2.80;;;4.10;99.90;;;;;;5096460;28;20051;-68
2023/01/17 11:22:00;;;;;;;6.13;2.40;;;4.20;99.90;;;;;;5106715;28;20058;-68
2023/01/17 11:24:35;;;;;;;5.15;2.25;;;4.30;99.90;;;;;;5103662;28;20414;-69
2023/01/17 11:27:03;;;;;;;3.22;2.53;;;4.30;99.90;;;;;;5094380;28;20519;-71
2023/01/17 11:29:35;;;;;;;7.80;2.58;;;4.30;99.90;;;;;;5108433;28;20043;-70
2023/01/17 11:32:20;;;;;;;11.65;3.38;;;4.40;99.90;;;;;;5092623;28;20462;-67
2023/01/17 11:35:12;;;;;;;3.40;2.25;;;4.60;99.90;;;;;;5103092;28;20056;-67
2023/01/17 11:37:47;;;;;;;5.18;2.83;;;4.60;99.90;;;;;;5086284;28;20512;-67
2023/01/17 11:40:26;;;;;;;8.63;2.70;;;4.70;99.90;;;;;;5098709;28;20048;-67
2023/01/17 11:43:09;;;;;;;9.63;2.42;;;4.80;99.90;;;;;;5103447;28;20032;-67
2023/01/17 11:45:35;;;;;;;6.00;2.72;;;4.80;99.90;;;;;;5105140;28;20039;-67
2023/01/17 11:48:07;;;;;;;6.78;2.92;;;4.80;99.90;;;;;;5085807;28;20484;-69
2023/01/17 11:50:36;;;;;;;10.43;3.35;;;4.90;99.90;;;;;;5100013;28;20404;-69
2023/01/17 11:53:19;;;;;;;8.27;2.47;;;4.90;99.90;;;;;;5087475;28;20048;-69
2023/01/17 11:55:56;;;;;;;4.20;3.20;;;5.00;99.90;;;;;;5094665;28;20040;-69
2023/01/17 11:58:24;;;;;;;4.18;2.75;;;5.00;99.90;;;;;;5093271;28;20067;-69
2023/01/17 12:01:12;;;;;;;6.17;3.20;;;5.10;99.90;;;;;;5104002;28;20065;-69
2023/01/17 12:03:59;;;;;;;6.93;2.88;;;5.20;99.90;;;;;;5076261;28;20064;-69
2023/01/17 12:06:44;;;;;;;11.00;3.40;;;5.20;99.90;;;;;;5090082;28;20044;-69
2023/01/17 12:09:26;;;;;;;4.25;2.85;;;5.10;99.90;;;;;;5090630;28;20408;-69
2023/01/17 12:15:12;;;;;;;11.50;4.00;;;5.20;99.90;;;;;;5098642;28;20075;-67
2023/01/17 12:18:09;;;;;;;9.50;3.95;;;5.10;99.90;;;;;;5089922;28;20044;-67
2023/01/17 12:20:47;;;;;;;7.40;2.92;;;5.20;99.90;;;;;;5102163;28;20083;-67
2023/01/17 12:23:37;;;;;;;7.70;3.10;;;5.20;99.90;;;;;;5090049;28;20055;-67
2023/01/17 12:26:24;;;;;;;8.65;3.13;;;5.20;99.90;;;;;;5093926;28;20784;-69
2023/01/17 12:29:08;;;;;;;7.68;3.00;;;5.20;99.90;;;;;;5104609;28;20454;-69
2023/01/17 12:31:42;;;;;;;12.05;3.60;;;5.20;99.90;;;;;;5104019;28;20605;-67
2023/01/17 12:34:33;;;;;;;11.13;3.50;;;5.20;99.90;;;;;;5090394;28;20109;-67
2023/01/17 12:37:11;;;;;;;9.18;2.50;;;5.20;99.90;;;;;;5099109;28;20080;-67
2023/01/17 12:39:44;;;;;;;12.10;2.50;;;5.20;99.90;;;;;;5100976;28;20062;-67
2023/01/17 12:42:13;;;;;;;6.38;2.42;;;5.20;99.90;;;;;;5090036;28;20416;-67
2023/01/17 12:44:56;;;;;;;16.92;3.55;;;5.30;99.90;;;;;;5098089;28;20071;-66
2023/01/17 12:47:22;;;;;;;11.65;2.75;;;5.30;99.90;;;;;;5103269;28;20040;-67
2023/01/17 12:49:55;;;;;;;4.53;2.67;;;5.30;99.90;;;;;;5104055;28;20500;-67
2023/01/17 12:52:53;;;;;;;5.00;2.95;;;5.30;99.90;;;;;;5108404;28;20071;-67
2023/01/17 12:55:22;;;;;;;;;;;5.40;99.90;;;;;;5048456;28;20040;-67
2023/01/17 12:57:58;;;;;;;4.07;2.33;;;5.30;99.90;;;;;;5092849;28;19973;-67
2023/01/17 13:00:28;;;;;;;6.43;3.60;;;5.30;99.90;;;;;;5103097;28;20122;-67
2023/01/17 13:03:19;;;;;;;9.70;3.15;;;5.30;99.90;;;;;;5098184;28;20050;-67
2023/01/17 13:05:45;;;;;;;4.72;2.47;;;5.30;99.90;;;;;;5095311;28;20386;-67
2023/01/17 13:08:11;;;;;;;9.32;2.80;;;5.20;99.90;;;;;;5088925;28;20093;-68
2023/01/17 13:10:55;;;;;;;6.22;2.40;;;5.20;99.90;;;;;;5101533;28;20036;-71
2023/01/17 13:13:24;;;;;;;3.72;3.05;;;5.10;99.90;;;;;;5094274;28;20044;-68
2023/01/17 13:15:57;;;;;;;3.95;2.47;;;5.00;99.90;;;;;;5095769;28;20081;-69
2023/01/17 13:18:28;;;;;;;7.03;2.95;;;5.00;99.90;;;;;;5095058;28;20110;-68
2023/01/17 13:21:06;;;;;;;9.32;3.28;;;5.00;99.90;;;;;;5102951;28;20067;-67
2023/01/17 13:23:43;;;;;;;3.40;2.47;;;4.90;99.90;;;;;;5107865;28;20042;-68
2023/01/17 13:26:35;;;;;;;5.40;2.83;;;5.00;99.90;;;;;;5096672;28;20048;-67
2023/01/17 13:29:03;;;;;;;7.57;2.83;;;5.00;99.90;;;;;;5096119;28;20072;-68
2023/01/17 13:31:47;;;;;;;5.00;2.92;;;5.00;99.90;;;;;;5088771;28;20048;-68
2023/01/17 13:34:39;;;;;;;9.60;4.43;;;4.90;99.90;;;;;;5095963;28;20134;-67
2023/01/17 13:37:29;;;;;;;12.18;3.45;;;4.90;99.90;;;;;;5089461;28;20037;-68
2023/01/17 13:40:16;;;;;;;9.38;3.13;;;4.90;99.90;;;;;;5094469;28;20122;-68
2023/01/17 13:42:56;;;;;;;9.02;3.65;;;4.90;99.90;;;;;;5101614;28;20640;-72
2023/01/17 13:45:32;;;;;;;12.65;3.95;;;4.90;99.90;;;;;;5095483;28;20089;-70
2023/01/17 13:48:17;;;;;;;4.20;3.17;;;4.90;99.90;;;;;;5088542;28;20080;-69
2023/01/17 13:50:54;;;;;;;5.88;2.53;;;4.80;99.90;;;;;;5088375;28;20036;-69
2023/01/17 13:53:38;;;;;;;2.67;2.25;;;4.80;99.90;;;;;;5107303;28;20134;-69
2023/01/17 13:56:21;;;;;;;6.78;3.63;;;4.80;99.90;;;;;;5094243;28;20105;-68
2023/01/17 13:58:53;;;;;;;8.90;3.28;;;4.80;99.90;;;;;;5101333;28;20043;-69
2023/01/17 14:01:22;;;;;;;5.35;3.30;;;4.80;99.90;;;;;;5088698;28;20108;-69
2023/01/17 14:03:50;;;;;;;7.20;4.18;;;4.70;99.90;;;;;;5097449;28;20109;-69
2023/01/17 14:06:31;;;;;;;;;;;4.70;99.90;;;;;;5124951;27;20134;-69
2023/01/17 14:09:23;;;;;;;8.45;3.20;;;4.60;99.90;;;;;;5089712;28;20002;-69
2023/01/17 14:11:57;;;;;;;7.65;3.00;;;4.60;99.90;;;;;;5078958;28;20101;-69
2023/01/17 14:14:41;;;;;;;5.70;3.75;;;4.50;99.90;;;;;;5091514;28;20051;-69
2023/01/17 14:17:19;;;;;;;43.10;6.93;;;4.50;99.90;;;;;;5088680;28;20048;-69
2023/01/17 14:19:48;;;;;;;4.10;3.25;;;4.60;99.90;;;;;;5105728;28;20036;-69
2023/01/17 14:22:25;;;;;;;21.08;3.72;;;4.50;99.90;;;;;;5102759;28;20048;-69
2023/01/17 14:25:18;;;;;;;7.93;2.58;;;4.50;99.90;;;;;;5102610;28;20075;-69
2023/01/17 14:27:53;;;;;;;5.60;1.85;;;4.40;99.90;;;;;;5095952;28;20036;-69
2023/01/17 14:30:24;;;;;;;3.75;2.45;;;4.40;99.90;;;;;;5097019;28;20150;-69
2023/01/17 14:32:59;;;;;;;5.95;1.80;;;4.30;99.90;;;;;;5088568;28;20162;-69
2023/01/17 14:35:40;;;;;;;2.38;1.95;;;4.30;99.90;;;;;;5090220;28;20203;-69
2023/01/17 14:38:20;;;;;;;6.50;2.13;;;4.30;99.90;;;;;;5101123;28;20840;-69
2023/01/17 14:41:03;;;;;;;4.60;2.95;;;4.20;99.90;;;;;;5087851;28;20039;-69
2023/01/17 14:43:32;;;;;;;6.03;2.75;;;4.20;99.90;;;;;;5069628;28;20089;-69
2023/01/17 14:45:59;;;;;;;;;;;4.10;99.90;;;;;;5096336;28;20708;-69
2023/01/17 14:48:25;;;;;;;4.88;1.75;;;4.10;99.90;;;;;;5099061;28;20361;-69